createdAt,value
2018-03-14T00:00:33.188Z,92.02
2018-03-14T00:03:01.445Z,91.74
2018-03-14T00:05:30.477Z,91.88
2018-03-14T00:07:58.734Z,91.62
2018-03-14T00:10:27.019Z,91.28
2018-03-14T00:12:55.276Z,90.12
2018-03-14T00:15:23.549Z,90.95
2018-03-14T00:17:51.808Z,90.80
2018-03-14T00:20:20.828Z,90.99
2018-03-14T00:22:49.116Z,91.60
2018-03-14T00:25:17.368Z,92.06
2018-03-14T00:27:46.387Z,91.41
2018-03-14T00:30:14.668Z,90.97
2018-03-14T00:32:42.920Z,91.29
2018-03-14T00:35:11.171Z,90.81
2018-03-14T00:37:40.212Z,90.99
2018-03-14T00:40:08.507Z,90.72
2018-03-14T00:42:36.771Z,90.79
2018-03-14T00:45:05.079Z,91.44
2018-03-14T00:47:33.411Z,90.75
2018-03-14T00:50:01.665Z,91.12
2018-03-14T00:52:30.713Z,91.84
2018-03-14T00:54:58.986Z,92.27
2018-03-14T00:57:27.275Z,91.25
2018-03-14T00:59:56.300Z,91.12
2018-03-14T01:02:25.348Z,91.04
2018-03-14T01:04:53.603Z,91.65
2018-03-14T01:07:21.861Z,91.09
2018-03-14T01:09:50.140Z,91.97
2018-03-14T01:12:18.413Z,92.05
2018-03-14T01:14:46.669Z,91.18
2018-03-14T01:17:15.720Z,92.09
2018-03-14T01:19:43.983Z,92.19
2018-03-14T01:22:12.245Z,92.34
2018-03-14T01:24:40.516Z,92.03
2018-03-14T01:27:08.781Z,92.13
2018-03-14T01:29:37.048Z,92.25
2018-03-14T01:32:05.319Z,92.68
2018-03-14T01:34:34.332Z,92.72
2018-03-14T01:37:02.688Z,93.22
2018-03-14T01:39:31.717Z,93.30
2018-03-14T01:41:59.976Z,93.56
2018-03-14T01:44:28.249Z,93.38
2018-03-14T01:46:56.519Z,92.27
2018-03-14T01:49:25.640Z,92.22
2018-03-14T01:51:53.914Z,92.61
2018-03-14T01:54:22.175Z,91.72
2018-03-14T01:56:50.432Z,92.29
2018-03-14T01:59:19.470Z,92.02
2018-03-14T02:01:49.152Z,91.18
2018-03-14T02:04:17.416Z,91.22
2018-03-14T02:06:46.455Z,91.65
2018-03-14T02:09:14.716Z,91.09
2018-03-14T02:11:42.979Z,91.08
2018-03-14T02:14:11.250Z,89.96
2018-03-14T02:16:39.563Z,90.62
2018-03-14T02:19:07.819Z,90.37
2018-03-14T02:21:36.093Z,91.04
2018-03-14T02:24:04.343Z,91.28
2018-03-14T02:26:33.375Z,90.94
2018-03-14T02:29:01.648Z,90.20
2018-03-14T02:31:29.912Z,89.86
2018-03-14T02:33:58.167Z,89.36
2018-03-14T02:39:40.175Z,88.86
2018-03-14T02:42:09.225Z,89.22
2018-03-14T02:44:37.480Z,89.69
2018-03-14T02:47:05.736Z,89.90
2018-03-14T02:49:34.009Z,90.49
2018-03-14T02:52:03.038Z,90.91
2018-03-14T02:54:31.301Z,90.67
2018-03-14T02:56:59.558Z,90.00
2018-03-14T02:59:27.812Z,89.63
2018-03-14T03:01:56.848Z,89.62
2018-03-14T03:04:25.113Z,89.34
2018-03-14T03:06:53.374Z,89.86
2018-03-14T03:09:22.391Z,89.82
2018-03-14T03:11:50.669Z,89.73
2018-03-14T03:14:18.911Z,89.92
2018-03-14T03:16:49.166Z,90.60
2018-03-14T03:19:17.437Z,90.84
2018-03-14T03:21:45.690Z,90.64
2018-03-14T03:24:14.708Z,90.54
2018-03-14T03:26:42.986Z,90.46
2018-03-14T03:29:11.245Z,91.67
2018-03-14T03:31:40.288Z,91.28
2018-03-14T03:34:08.540Z,91.26
2018-03-14T03:36:36.787Z,90.80
2018-03-14T03:39:05.832Z,90.86
2018-03-14T03:41:34.104Z,91.47
2018-03-14T03:44:02.355Z,91.51
2018-03-14T03:46:30.628Z,90.83
2018-03-14T03:48:58.889Z,91.23
2018-03-14T03:51:27.140Z,90.49
2018-03-14T03:53:55.408Z,90.37
2018-03-14T03:56:25.157Z,91.21
2018-03-14T03:58:53.424Z,91.31
2018-03-14T04:01:22.451Z,90.62
2018-03-14T04:03:50.705Z,90.41
2018-03-14T04:06:18.983Z,90.22
2018-03-14T04:08:47.241Z,90.62
2018-03-14T04:11:16.256Z,90.28
2018-03-14T04:13:44.612Z,90.25
2018-03-14T04:16:13.620Z,90.47
2018-03-14T04:18:41.917Z,89.60
2018-03-14T04:21:10.161Z,89.17
2018-03-14T04:23:39.196Z,89.40
2018-03-14T04:26:07.554Z,90.20
2018-03-14T04:28:35.812Z,89.88
2018-03-14T04:31:04.076Z,89.78
2018-03-14T04:33:33.087Z,89.97
2018-03-14T04:36:01.336Z,90.45
2018-03-14T04:38:30.437Z,90.74
2018-03-14T04:40:58.683Z,90.88
2018-03-14T04:43:27.022Z,90.80
2018-03-14T04:45:55.296Z,90.69
2018-03-14T04:48:23.559Z,90.72
2018-03-14T04:50:52.008Z,92.38
2018-03-14T04:53:20.296Z,92.56
2018-03-14T04:55:49.303Z,92.63
2018-03-14T04:58:17.576Z,92.54
2018-03-14T05:00:46.630Z,92.19
2018-03-14T05:03:14.884Z,90.94
2018-03-14T05:05:43.143Z,91.20
2018-03-14T05:08:11.400Z,90.87
2018-03-14T05:10:39.647Z,91.34
2018-03-14T05:13:07.908Z,90.77
2018-03-14T05:15:36.168Z,91.08
2018-03-14T05:18:04.525Z,91.42
2018-03-14T05:20:32.792Z,91.77
2018-03-14T05:23:01.048Z,90.70
2018-03-14T05:25:30.069Z,90.42
2018-03-14T05:27:58.336Z,90.35
2018-03-14T05:30:26.623Z,90.04
2018-03-14T05:32:54.883Z,90.51
2018-03-14T05:35:23.154Z,90.53
2018-03-14T05:37:52.206Z,90.52
2018-03-14T05:40:20.499Z,90.37
2018-03-14T05:42:48.760Z,88.82
2018-03-14T05:45:17.029Z,87.57
2018-03-14T05:47:45.280Z,87.48
2018-03-14T05:50:13.528Z,87.48
2018-03-14T05:52:41.835Z,88.70
2018-03-14T05:55:10.088Z,89.33
2018-03-14T05:57:38.347Z,88.95
2018-03-14T06:00:07.380Z,89.11
2018-03-14T06:02:35.648Z,88.67
2018-03-14T06:05:03.895Z,87.92
2018-03-14T06:07:33.009Z,87.66
2018-03-14T06:10:01.260Z,87.62
2018-03-14T06:12:30.305Z,87.80
2018-03-14T06:14:58.576Z,87.89
2018-03-14T06:17:26.852Z,88.20
2018-03-14T06:19:55.103Z,89.33
2018-03-14T06:22:23.351Z,89.96
2018-03-14T06:24:52.387Z,90.08
2018-03-14T06:27:20.640Z,90.10
2018-03-14T06:29:48.917Z,89.10
2018-03-14T06:32:17.949Z,89.46
2018-03-14T06:34:46.192Z,90.27
2018-03-14T06:37:14.436Z,90.27
2018-03-14T06:39:42.703Z,89.87
2018-03-14T06:42:10.959Z,89.68
2018-03-14T06:44:39.220Z,89.72
2018-03-14T06:47:07.527Z,90.56
2018-03-14T06:49:35.827Z,89.75
2018-03-14T06:52:04.859Z,90.69
2018-03-14T06:54:33.123Z,90.52
2018-03-14T06:57:01.391Z,90.10
2018-03-14T06:59:47.563Z,90.03
2018-03-14T07:05:44.963Z,90.93
2018-03-14T07:08:13.216Z,91.59
2018-03-14T07:10:42.227Z,91.93
2018-03-14T07:13:10.492Z,91.38
2018-03-14T07:15:39.531Z,90.78
2018-03-14T07:18:07.782Z,90.76
2018-03-14T07:20:36.051Z,90.09
2018-03-14T07:23:04.325Z,89.13
2018-03-14T07:25:32.578Z,89.23
2018-03-14T07:28:00.881Z,89.15
2018-03-14T07:30:29.888Z,88.93
2018-03-14T07:32:58.152Z,89.05
2018-03-14T07:35:26.408Z,88.14
2018-03-14T07:37:55.432Z,87.67
2018-03-14T07:40:23.694Z,87.84
2018-03-14T07:42:51.956Z,86.30
2018-03-14T07:45:20.971Z,86.51
2018-03-14T07:47:49.240Z,85.88
2018-03-14T07:50:17.488Z,85.25
2018-03-14T07:52:45.811Z,84.01
2018-03-14T07:55:14.071Z,85.07
2018-03-14T07:57:42.359Z,85.00
2018-03-14T08:00:10.613Z,85.41
2018-03-14T08:02:39.652Z,85.14
2018-03-14T08:05:07.904Z,84.96
2018-03-14T08:07:36.176Z,84.35
2018-03-14T08:10:04.428Z,83.92
2018-03-14T08:12:33.452Z,84.27
2018-03-14T08:15:01.715Z,84.40
2018-03-14T08:17:29.979Z,85.87
2018-03-14T08:19:59.099Z,84.90
2018-03-14T08:22:27.373Z,83.65
2018-03-14T08:24:55.623Z,83.96
2018-03-14T08:27:24.673Z,83.90
2018-03-14T08:29:52.925Z,84.21
2018-03-14T08:32:21.200Z,85.24
2018-03-14T08:34:49.467Z,83.47
2018-03-14T08:37:17.734Z,83.98
2018-03-14T08:39:46.022Z,83.63
2018-03-14T08:42:14.287Z,83.05
2018-03-14T08:44:42.539Z,83.32
2018-03-14T08:47:11.576Z,82.01
2018-03-14T08:49:39.824Z,84.01
2018-03-14T08:52:08.084Z,85.03
2018-03-14T08:54:37.173Z,84.44
2018-03-14T08:57:05.433Z,85.13
2018-03-14T08:59:33.751Z,85.89
2018-03-14T09:02:01.969Z,84.71
2018-03-14T09:04:30.986Z,84.79
2018-03-14T09:06:59.251Z,84.27
2018-03-14T09:09:27.508Z,84.55
2018-03-14T09:11:55.771Z,84.14
2018-03-14T09:14:24.048Z,84.01
2018-03-14T09:16:53.551Z,83.60
2018-03-14T09:19:21.802Z,83.58
2018-03-14T09:21:50.066Z,83.51
2018-03-14T09:24:19.109Z,83.41
2018-03-14T09:26:47.367Z,83.97
2018-03-14T09:29:15.645Z,82.00
2018-03-14T09:31:43.911Z,81.07
2018-03-14T09:34:12.156Z,79.74
2018-03-14T09:36:41.185Z,79.51
2018-03-14T09:39:09.443Z,80.38
2018-03-14T09:41:37.721Z,79.28
2018-03-14T09:44:06.740Z,77.67
2018-03-14T09:46:34.991Z,78.39
2018-03-14T09:49:03.292Z,77.46
2018-03-14T09:51:31.535Z,78.30
2018-03-14T09:53:59.820Z,78.36
2018-03-14T09:56:28.071Z,78.68
2018-03-14T09:58:57.102Z,78.25
2018-03-14T10:01:25.365Z,78.73
2018-03-14T10:03:53.749Z,80.66
2018-03-14T10:06:21.972Z,79.29
2018-03-14T10:08:50.220Z,78.98
2018-03-14T10:11:18.497Z,79.13
2018-03-14T10:13:46.751Z,79.67
2018-03-14T10:16:15.016Z,78.93
2018-03-14T10:18:44.054Z,79.57
2018-03-14T10:21:12.319Z,77.93
2018-03-14T10:23:40.576Z,77.70
2018-03-14T10:26:08.844Z,76.54
2018-03-14T10:28:37.100Z,75.85
2018-03-14T10:31:06.124Z,76.68
2018-03-14T10:33:34.403Z,77.04
2018-03-14T10:36:02.660Z,76.56
2018-03-14T10:38:31.690Z,75.98
2018-03-14T10:40:59.948Z,75.75
2018-03-14T10:43:28.212Z,74.58
2018-03-14T10:45:56.460Z,73.43
2018-03-14T10:48:25.492Z,74.59
2018-03-14T10:50:53.780Z,72.73
2018-03-14T10:53:22.041Z,73.40
2018-03-14T10:55:50.316Z,73.79
2018-03-14T10:58:18.572Z,74.18
2018-03-14T11:00:53.100Z,74.77
2018-03-14T11:03:21.350Z,75.11
2018-03-14T11:05:49.629Z,72.95
2018-03-14T11:08:17.956Z,71.07
2018-03-14T11:10:46.202Z,70.09
2018-03-14T11:13:15.237Z,69.17
2018-03-14T11:15:43.493Z,70.75
2018-03-14T11:18:11.799Z,70.66
2018-03-14T11:20:40.027Z,71.85
2018-03-14T11:23:09.071Z,72.73
2018-03-14T11:25:37.375Z,71.91
2018-03-14T11:28:05.664Z,71.05
2018-03-14T11:30:33.896Z,71.19
2018-03-14T11:33:02.158Z,72.01
2018-03-14T11:35:30.420Z,71.66
2018-03-14T11:37:58.681Z,70.36
2018-03-14T11:40:26.945Z,69.59
2018-03-14T11:42:55.976Z,69.05
2018-03-14T11:45:24.231Z,69.85
2018-03-14T11:47:52.548Z,69.45
2018-03-14T11:50:20.800Z,69.77
2018-03-14T11:52:49.055Z,70.46
2018-03-14T11:55:17.324Z,69.62
2018-03-14T11:57:45.588Z,69.04
2018-03-14T12:00:14.629Z,66.23
2018-03-14T12:02:42.905Z,67.31
2018-03-14T12:05:11.180Z,66.87
2018-03-14T12:07:39.488Z,68.99
2018-03-14T12:10:07.769Z,67.32
2018-03-14T12:12:36.044Z,71.26
2018-03-14T12:15:04.308Z,70.64
2018-03-14T12:17:32.586Z,68.06
2018-03-14T12:20:00.860Z,66.67
2018-03-14T12:22:31.876Z,65.54
2018-03-14T12:25:00.163Z,68.13
2018-03-14T12:27:28.428Z,68.77
2018-03-14T12:29:56.726Z,69.60
2018-03-14T12:32:24.987Z,66.33
2018-03-14T12:34:53.255Z,66.99
2018-03-14T12:37:21.524Z,65.35
2018-03-14T12:39:49.784Z,64.80
2018-03-14T12:42:18.068Z,63.70
2018-03-14T12:44:46.329Z,62.97
2018-03-14T12:47:15.368Z,63.33
2018-03-14T12:49:43.621Z,60.86
2018-03-14T12:52:11.877Z,60.63
2018-03-14T12:54:40.146Z,58.98
2018-03-14T12:57:09.237Z,59.36
2018-03-14T12:59:37.460Z,59.53
2018-03-14T13:02:05.723Z,60.69
2018-03-14T13:04:33.996Z,57.45
2018-03-14T13:07:02.264Z,58.09
2018-03-14T13:09:30.535Z,61.13
2018-03-14T13:12:00.264Z,61.12
2018-03-14T13:14:28.574Z,56.13
2018-03-14T13:16:56.830Z,55.63
2018-03-14T13:19:25.104Z,56.02
2018-03-14T13:21:53.355Z,59.09
2018-03-14T13:24:21.636Z,57.83
2018-03-14T13:26:49.888Z,57.11
2018-03-14T13:29:18.934Z,55.53
2018-03-14T13:31:47.186Z,52.55
2018-03-14T13:34:15.464Z,51.21
2018-03-14T13:36:43.734Z,48.95
2018-03-14T13:39:12.001Z,50.10
2018-03-14T13:41:40.291Z,49.95
2018-03-14T13:44:08.553Z,47.57
2018-03-14T13:46:36.818Z,46.89
2018-03-14T13:49:05.075Z,46.79
2018-03-14T13:51:34.098Z,48.29
2018-03-14T13:54:02.367Z,46.55
2018-03-14T13:56:30.630Z,44.67
2018-03-14T13:58:59.746Z,46.08
2018-03-14T14:01:27.952Z,49.89
2018-03-14T14:03:56.313Z,49.68
2018-03-14T14:06:24.592Z,51.61
2018-03-14T14:08:52.859Z,52.58
2018-03-14T14:11:21.128Z,54.12
2018-03-14T14:13:49.459Z,54.41
2018-03-14T14:16:17.743Z,55.40
2018-03-14T14:18:46.008Z,56.16
2018-03-14T14:21:14.289Z,57.39
2018-03-14T14:23:42.557Z,56.06
2018-03-14T14:26:10.833Z,56.99
2018-03-14T14:28:39.097Z,56.94
2018-03-14T14:31:07.353Z,56.71
2018-03-14T14:33:35.628Z,57.84
2018-03-14T14:36:03.879Z,58.27
2018-03-14T14:38:32.172Z,60.03
2018-03-14T14:41:00.424Z,58.97
2018-03-14T14:43:28.687Z,59.25
2018-03-14T14:45:57.729Z,61.45
2018-03-14T14:48:25.993Z,58.43
2018-03-14T14:50:54.264Z,57.35
2018-03-14T14:53:22.528Z,57.82
2018-03-14T14:55:50.785Z,58.75
2018-03-14T14:58:19.828Z,59.58
2018-03-14T15:00:48.113Z,59.04
2018-03-14T15:03:16.388Z,58.36
2018-03-14T15:05:44.647Z,57.79
2018-03-14T15:08:12.915Z,57.01
2018-03-14T15:10:41.200Z,55.57
2018-03-14T15:13:09.461Z,53.46
2018-03-14T15:15:37.748Z,50.42
2018-03-14T15:18:06.013Z,48.36
2018-03-14T15:20:34.284Z,47.29
2018-03-14T15:23:02.569Z,43.89
2018-03-14T15:25:30.836Z,44.00
2018-03-14T15:27:59.145Z,43.05
2018-03-14T15:30:27.405Z,41.19
2018-03-14T15:32:55.680Z,40.68
2018-03-14T15:35:23.940Z,41.22
2018-03-14T15:37:52.218Z,41.86
2018-03-14T15:40:20.490Z,42.14
2018-03-14T15:42:48.767Z,39.31
2018-03-14T15:45:17.028Z,39.25
2018-03-14T15:47:46.080Z,38.69
2018-03-14T15:50:14.339Z,38.18
2018-03-14T15:52:42.711Z,37.96
2018-03-14T15:55:10.979Z,36.98
2018-03-14T15:57:39.274Z,37.51
2018-03-14T16:00:07.576Z,37.36
2018-03-14T16:02:35.839Z,37.60
2018-03-14T16:05:04.096Z,37.39
2018-03-14T16:07:32.377Z,38.27
2018-03-14T16:10:00.632Z,38.62
2018-03-14T16:12:28.909Z,38.51
2018-03-14T16:14:57.175Z,39.48
2018-03-14T16:17:25.435Z,40.19
2018-03-14T16:19:54.503Z,40.11
2018-03-14T16:22:22.767Z,40.83
2018-03-14T16:24:51.049Z,42.10
2018-03-14T16:27:20.080Z,42.50
2018-03-14T16:29:49.115Z,42.62
2018-03-14T16:32:17.390Z,42.80
2018-03-14T16:34:45.658Z,43.90
2018-03-14T16:37:13.975Z,45.82
2018-03-14T16:39:42.265Z,47.69
2018-03-14T16:42:11.319Z,49.72
2018-03-14T16:44:39.630Z,50.57
2018-03-14T16:47:08.635Z,52.38
2018-03-14T16:49:37.668Z,53.62
2018-03-14T16:52:05.942Z,55.26
2018-03-14T16:54:34.222Z,56.73
2018-03-14T16:57:04.288Z,57.04
2018-03-14T16:59:32.560Z,57.62
2018-03-14T17:02:00.861Z,58.65
2018-03-14T17:04:29.889Z,59.55
2018-03-14T17:06:58.192Z,61.39
2018-03-14T17:09:26.478Z,61.62
2018-03-14T17:11:54.751Z,62.62
2018-03-14T17:14:27.281Z,62.85
2018-03-14T17:16:51.659Z,64.53
2018-03-14T17:19:20.059Z,65.64
2018-03-14T17:21:48.418Z,66.61
2018-03-14T17:24:16.765Z,67.30
2018-03-14T17:26:45.815Z,67.37
2018-03-14T17:29:14.200Z,68.82
2018-03-14T17:31:42.659Z,69.49
2018-03-14T17:34:11.229Z,69.68
2018-03-14T17:36:40.060Z,71.41
2018-03-14T17:39:09.563Z,71.94
2018-03-14T17:41:39.328Z,71.94
2018-03-14T17:44:08.463Z,72.50
2018-03-14T17:46:37.760Z,72.46
2018-03-14T17:49:06.984Z,72.87
2018-03-14T17:51:36.246Z,74.31
2018-03-14T17:54:05.610Z,73.81
2018-03-14T17:56:34.803Z,72.91
2018-03-14T17:59:03.929Z,72.03
2018-03-14T18:01:32.986Z,72.23
2018-03-14T18:04:01.929Z,72.55
2018-03-14T18:06:31.960Z,72.29
2018-03-14T18:09:01.234Z,73.15
2018-03-14T18:11:31.987Z,73.92
2018-03-14T18:14:01.189Z,74.52
2018-03-14T18:16:30.318Z,73.91
2018-03-14T18:18:59.612Z,74.11
2018-03-14T18:21:28.994Z,74.15
2018-03-14T18:23:58.388Z,73.04
2018-03-14T18:26:27.712Z,74.89
2018-03-14T18:28:57.013Z,73.25
2018-03-14T18:31:26.403Z,73.34
2018-03-14T18:33:55.670Z,73.95
2018-03-14T18:36:25.832Z,75.31
2018-03-14T18:38:55.131Z,74.63
2018-03-14T18:41:24.588Z,75.10
2018-03-14T18:43:54.701Z,76.02
2018-03-14T18:46:24.855Z,75.36
2018-03-14T18:48:54.269Z,76.39
2018-03-14T18:51:23.595Z,76.47
2018-03-14T18:53:53.036Z,76.47
2018-03-14T18:56:23.145Z,76.29
2018-03-14T18:58:53.324Z,76.17
2018-03-14T19:01:22.725Z,75.38
2018-03-14T19:03:52.152Z,75.19
2018-03-14T19:06:21.433Z,76.00
2018-03-14T19:08:50.946Z,76.42
2018-03-14T19:11:21.077Z,76.25
2018-03-14T19:13:50.457Z,77.46
2018-03-14T19:16:19.935Z,77.36
2018-03-14T19:18:49.568Z,77.37
2018-03-14T19:21:18.958Z,77.32
2018-03-14T19:23:48.348Z,77.62
2018-03-14T19:26:17.700Z,80.22
2018-03-14T19:28:47.154Z,81.90
2018-03-14T19:31:16.592Z,81.38
2018-03-14T19:33:46.020Z,81.04
2018-03-14T19:36:15.430Z,80.21
2018-03-14T19:38:46.193Z,80.79
2018-03-14T19:41:15.464Z,81.05
2018-03-14T19:43:44.906Z,81.37
2018-03-14T19:46:14.299Z,81.44
2018-03-14T19:48:43.850Z,81.08
2018-03-14T19:51:13.422Z,80.74
2018-03-14T19:53:42.761Z,81.34
2018-03-14T19:56:12.216Z,81.28
2018-03-14T19:58:41.608Z,81.55
2018-03-14T20:01:11.091Z,80.58
2018-03-14T20:03:41.413Z,79.98
2018-03-14T20:06:10.708Z,79.33
2018-03-14T20:08:40.635Z,79.24
2018-03-14T20:11:10.092Z,79.52
2018-03-14T20:13:40.230Z,78.87
2018-03-14T20:16:10.022Z,78.68
2018-03-14T20:18:40.230Z,78.57
2018-03-14T20:21:09.662Z,78.80
2018-03-14T20:23:39.843Z,78.84
2018-03-14T20:26:09.399Z,79.57
2018-03-14T20:28:38.837Z,80.52
2018-03-14T20:31:08.257Z,80.82
2018-03-14T20:33:37.647Z,81.70
2018-03-14T20:36:07.670Z,81.28
2018-03-14T20:38:37.927Z,81.84
2018-03-14T20:41:08.129Z,83.06
2018-03-14T20:43:38.074Z,83.31
2018-03-14T20:46:08.827Z,84.89
2018-03-14T20:48:39.443Z,85.11
2018-03-14T20:51:10.182Z,84.10
2018-03-14T20:53:40.064Z,83.09
2018-03-14T20:56:10.662Z,84.32
2018-03-14T20:58:40.591Z,85.52
2018-03-14T21:01:10.564Z,86.52
2018-03-14T21:03:41.210Z,86.31
2018-03-14T21:06:11.920Z,84.69
2018-03-14T21:08:41.824Z,84.02
2018-03-14T21:11:11.895Z,86.09
2018-03-14T21:13:42.506Z,86.39
2018-03-14T21:16:13.253Z,85.91
2018-03-14T21:18:43.908Z,85.15
2018-03-14T21:21:13.791Z,85.59
2018-03-14T21:23:43.589Z,86.19
2018-03-14T21:26:14.474Z,87.20
2018-03-14T21:28:44.394Z,88.38
2018-03-14T21:31:14.300Z,87.13
2018-03-14T21:33:44.191Z,86.20
2018-03-14T21:36:14.944Z,87.52
2018-03-14T21:38:44.740Z,87.01
2018-03-14T21:41:14.670Z,85.96
2018-03-14T21:43:44.465Z,85.40
2018-03-14T21:46:14.294Z,85.63
2018-03-14T21:48:44.461Z,87.30
2018-03-14T21:51:14.256Z,87.32
2018-03-14T21:53:44.281Z,86.94
2018-03-14T21:56:14.226Z,87.33
2018-03-14T21:58:44.988Z,86.87
2018-03-14T22:01:14.940Z,86.40
2018-03-14T22:03:44.811Z,85.98
2018-03-14T22:06:14.750Z,86.73
2018-03-14T22:08:44.926Z,87.11
2018-03-14T22:11:15.491Z,87.78
2018-03-14T22:13:45.048Z,88.78
2018-03-14T22:16:15.665Z,88.76
2018-03-14T22:18:45.629Z,89.23
2018-03-14T22:21:15.763Z,88.96
2018-03-14T22:23:45.254Z,89.83
2018-03-14T22:26:14.701Z,90.12
2018-03-14T22:28:43.536Z,91.21
2018-03-14T22:31:11.925Z,90.51
2018-03-14T22:33:40.247Z,89.69
2018-03-14T22:36:10.034Z,90.30
2018-03-14T22:38:38.551Z,90.42
2018-03-14T22:41:07.588Z,91.02
2018-03-14T22:43:35.842Z,90.12
2018-03-14T22:46:04.153Z,90.38
2018-03-14T22:48:32.427Z,89.75
2018-03-14T22:51:00.700Z,88.49
2018-03-14T22:53:28.957Z,88.56
2018-03-14T22:55:57.224Z,88.90
2018-03-14T22:58:25.481Z,89.70
2018-03-14T23:00:54.496Z,89.91
2018-03-14T23:03:22.767Z,89.57
2018-03-14T23:05:51.032Z,89.89
2018-03-14T23:08:20.050Z,88.26
2018-03-14T23:10:48.336Z,88.25
2018-03-14T23:13:16.592Z,90.25
2018-03-14T23:15:44.855Z,91.77
2018-03-14T23:18:13.975Z,92.93
2018-03-14T23:20:42.215Z,92.14
2018-03-14T23:23:11.348Z,93.84
2018-03-14T23:25:39.619Z,93.02
2018-03-14T23:28:07.887Z,93.98
2018-03-14T23:30:36.132Z,94.94
2018-03-14T23:33:05.169Z,95.21
2018-03-14T23:35:33.439Z,94.80
2018-03-14T23:38:01.688Z,93.71
2018-03-14T23:40:30.724Z,92.14
2018-03-14T23:42:58.977Z,91.11
2018-03-14T23:45:27.228Z,89.91
2018-03-14T23:47:56.268Z,89.91
2018-03-14T23:50:24.520Z,89.65
2018-03-14T23:52:52.792Z,89.56
2018-03-14T23:55:21.064Z,89.58
2018-03-14T23:57:49.341Z,90.54
